Time;durP1;ratioP1;P1;durP2;ratioP2;P2;SDS_P1;SDS_P2;PMS_P1;PMS_P2;Temp;Humidity;BMP_temperature;BMP_pressure;BME280_temperature;BME280_humidity;BME280_pressure;Samples;Min_cycle;Max_cycle;Signal;HPM_P1;HPM_P2
2022/03/06 00:00:22;;;;;;;16.47;11.47;;;;;;;1.52;46.81;99192.28;4173876;28;20236;-42
2022/03/06 00:02:24;;;;;;;13.70;10.50;;;;;;;1.55;47.37;99167.66;4170949;28;20246;-43
2022/03/06 00:04:26;;;;;;;14.07;10.77;;;;;;;1.54;47.41;99166.81;4168319;28;20339;-38
2022/03/06 00:06:27;;;;;;;14.73;10.50;;;;;;;1.52;47.41;99163.47;4173989;28;20608;-40
2022/03/06 00:08:29;;;;;;;15.37;10.87;;;;;;;1.61;46.98;99165.41;4174382;28;20239;-38
2022/03/06 00:10:31;;;;;;;14.17;9.83;;;;;;;1.49;47.28;99176.78;4174667;28;20606;-40
2022/03/06 00:12:34;;;;;;;14.80;9.90;;;;;;;1.52;47.62;99160.84;4177093;28;20236;-41
2022/03/06 00:14:35;;;;;;;14.30;10.57;;;;;;;1.73;47.09;99157.56;4176464;28;20798;-38
2022/03/06 00:16:37;;;;;;;14.73;9.23;;;;;;;1.64;47.31;99153.84;4176054;28;20232;-40
2022/03/06 00:18:39;;;;;;;16.73;11.33;;;;;;;1.80;46.83;99150.91;4170544;28;20625;-39
2022/03/06 00:20:42;;;;;;;17.10;11.47;;;;;;;1.66;47.21;99157.19;4185499;28;20323;-36
2022/03/06 00:22:43;;;;;;;15.90;10.33;;;;;;;1.45;47.76;99157.03;4173722;28;20293;-42
2022/03/06 00:24:45;;;;;;;13.93;9.90;;;;;;;1.77;46.88;99159.00;4174832;28;20836;-42
2022/03/06 00:26:47;;;;;;;14.37;9.90;;;;;;;1.59;47.18;99154.19;4176354;28;20229;-37
2022/03/06 00:28:49;;;;;;;12.93;9.53;;;;;;;1.57;47.39;99152.66;4182824;28;20239;-39
2022/03/06 00:30:50;;;;;;;13.80;9.93;;;;;;;1.81;46.84;99144.69;4166812;28;20912;-42
2022/03/06 00:32:52;;;;;;;13.10;9.87;;;;;;;1.76;46.92;99150.28;4175442;28;20243;-41
2022/03/06 00:34:54;;;;;;;13.43;10.27;;;;;;;1.79;46.54;99157.91;4172835;28;20258;-41
2022/03/06 00:36:56;;;;;;;13.23;10.00;;;;;;;1.57;47.30;99152.66;4174188;28;20242;-39
2022/03/06 00:38:57;;;;;;;13.30;10.23;;;;;;;1.37;47.62;99160.22;4174956;28;21021;-36
2022/03/06 00:40:59;;;;;;;16.13;10.17;;;;;;;1.30;47.51;99162.44;4164048;28;20232;-38
2022/03/06 00:43:01;;;;;;;14.83;9.97;;;;;;;1.40;47.71;99148.69;4168092;28;20260;-42
2022/03/06 00:45:04;;;;;;;13.20;9.57;;;;;;;1.17;48.10;99158.25;4169249;28;20243;-40
2022/03/06 00:47:06;;;;;;;14.10;9.90;;;;;;;1.45;47.51;99154.41;4168825;28;20236;-41
2022/03/06 00:49:07;;;;;;;13.37;9.67;;;;;;;1.28;47.70;99155.66;4170839;28;20999;-43
2022/03/06 00:51:12;;;;;;;13.53;9.30;;;;;;;1.23;47.83;99158.63;4170574;28;20233;-38
2022/03/06 00:53:14;;;;;;;15.07;10.47;;;;;;;1.39;47.71;99158.34;4170115;28;20236;-41
2022/03/06 00:55:15;;;;;;;15.30;10.80;;;;;;;1.44;47.70;99150.97;4170116;28;20262;-38
2022/03/06 00:57:17;;;;;;;13.80;9.73;;;;;;;1.54;47.23;99150.25;4170230;28;20240;-37
2022/03/06 00:59:19;;;;;;;15.80;10.43;;;;;;;1.21;48.10;99157.91;4170199;28;20298;-42
2022/03/06 01:01:20;;;;;;;12.83;9.20;;;;;;;1.40;47.08;99164.41;4169630;28;21194;-41
2022/03/06 01:03:23;;;;;;;16.00;10.03;;;;;;;1.07;48.36;99155.44;4170379;28;20992;-41
2022/03/06 01:05:25;;;;;;;14.33;10.00;;;;;;;1.38;47.65;99148.78;4173273;28;20236;-43
2022/03/06 01:07:26;;;;;;;14.00;9.87;;;;;;;1.13;48.08;99155.00;4169558;28;20232;-39
2022/03/06 01:09:28;;;;;;;15.07;10.17;;;;;;;1.17;48.20;99153.00;4170567;28;20228;-38
2022/03/06 01:11:30;;;;;;;15.73;10.97;;;;;;;1.47;47.52;99155.13;4172197;28;20221;-39
2022/03/06 01:13:32;;;;;;;13.73;9.90;;;;;;;1.29;47.56;99159.94;4169081;28;20224;-43
2022/03/06 01:15:34;;;;;;;14.63;10.57;;;;;;;1.19;47.91;99165.03;4173574;28;20262;-43
2022/03/06 01:17:36;;;;;;;15.30;10.00;;;;;;;1.17;48.16;99155.63;4173444;28;20235;-37
2022/03/06 01:19:38;;;;;;;13.23;9.27;;;;;;;1.39;47.60;99153.09;4171055;28;20289;-39
2022/03/06 01:21:39;;;;;;;13.37;10.63;;;;;;;1.20;48.16;99156.22;4170046;28;20258;-36
2022/03/06 01:23:41;;;;;;;13.87;10.00;;;;;;;1.02;48.15;99157.56;4169557;28;20236;-38
2022/03/06 01:25:43;;;;;;;14.27;9.97;;;;;;;1.27;47.63;99152.22;4169082;28;20231;-39
2022/03/06 01:27:45;;;;;;;15.37;10.07;;;;;;;1.31;47.64;99155.44;4171888;28;20243;-39
2022/03/06 01:29:46;;;;;;;15.07;10.77;;;;;;;1.15;48.21;99155.72;4170083;28;20229;-38
2022/03/06 01:31:49;;;;;;;16.47;10.53;;;;;;;0.98;48.32;99159.59;4172305;28;20740;-39
2022/03/06 01:33:51;;;;;;;14.17;10.10;;;;;;;0.92;48.47;99158.22;4174625;28;20297;-40
2022/03/06 01:35:53;;;;;;;15.10;10.40;;;;;;;0.98;48.61;99156.13;4175947;28;20259;-41
2022/03/06 01:37:54;;;;;;;14.17;10.03;;;;;;;0.98;48.08;99156.97;4169125;28;20779;-40
2022/03/06 01:39:56;;;;;;;13.40;10.10;;;;;;;0.83;48.36;99176.38;4169815;28;20594;-40
2022/03/06 01:41:58;;;;;;;16.50;11.13;;;;;;;1.04;48.34;99156.53;4169936;28;20231;-38
2022/03/06 01:44:00;;;;;;;15.10;10.07;;;;;;;1.07;48.15;99160.69;4168603;28;20241;-39
2022/03/06 01:46:02;;;;;;;14.30;10.07;;;;;;;0.87;48.78;99141.16;4168123;28;20334;-41
2022/03/06 01:48:08;;;;;;;14.57;10.27;;;;;;;0.90;48.63;99148.81;4170235;28;20293;-40
2022/03/06 01:50:17;;;;;;;14.90;11.23;;;;;;;1.01;48.54;99150.69;4167444;28;20362;-39
2022/03/06 01:52:19;;;;;;;13.60;9.40;;;;;;;1.06;48.39;99148.56;4169496;28;20231;-39
2022/03/06 01:54:20;;;;;;;14.60;10.43;;;;;;;0.83;48.82;99155.44;4168666;28;20247;-37
2022/03/06 01:56:22;;;;;;;15.77;10.63;;;;;;;0.84;48.72;99152.72;4168908;28;20685;-38
2022/03/06 01:58:24;;;;;;;15.27;10.30;;;;;;;0.74;48.88;99152.53;4169579;28;20235;-38
2022/03/06 02:00:28;;;;;;;15.53;11.10;;;;;;;0.69;48.94;99152.03;4169515;28;20228;-39
2022/03/06 02:02:30;;;;;;;14.53;10.43;;;;;;;0.79;48.74;99149.59;4166390;28;20258;-38
2022/03/06 02:04:32;;;;;;;15.83;11.97;;;;;;;0.82;48.74;99148.53;4169092;28;20650;-40
2022/03/06 02:06:36;;;;;;;20.10;13.77;;;;;;;0.76;48.63;99153.25;4174895;28;20231;-38
2022/03/06 02:08:39;;;;;;;21.10;14.40;;;;;;;0.87;48.79;99134.16;4171010;28;20240;-36
2022/03/06 02:10:41;;;;;;;29.27;17.37;;;;;;;0.81;48.58;99150.31;4156549;28;20243;-38
2022/03/06 02:12:44;;;;;;;24.43;15.63;;;;;;;1.02;48.36;99137.47;4170654;28;20233;-40
2022/03/06 02:14:46;;;;;;;23.80;14.97;;;;;;;1.08;48.31;99137.00;4155064;28;20232;-41
2022/03/06 02:16:47;;;;;;;23.43;14.70;;;;;;;0.90;48.62;99139.19;4174554;28;20846;-41
2022/03/06 02:18:49;;;;;;;21.50;14.60;;;;;;;1.01;48.26;99145.44;4162519;28;20237;-40
2022/03/06 02:20:51;;;;;;;19.90;14.13;;;;;;;0.93;48.21;99162.50;4152638;28;20248;-44
2022/03/06 02:22:55;;;;;;;19.47;12.63;;;;;;;0.78;48.34;99161.84;4155077;28;20649;-40
2022/03/06 02:24:59;;;;;;;19.10;13.30;;;;;;;0.92;48.23;99160.03;4152859;28;20303;-39
2022/03/06 02:27:01;;;;;;;19.20;13.43;;;;;;;0.83;48.70;99153.66;4158428;28;20728;-41
2022/03/06 02:29:03;;;;;;;18.90;13.43;;;;;;;0.92;48.56;99146.94;4182877;28;20283;-40
2022/03/06 02:31:05;;;;;;;19.27;13.87;;;;;;;0.73;48.81;99157.88;4163550;28;20246;-38
2022/03/06 02:33:11;;;;;;;19.13;13.47;;;;;;;0.83;48.91;99156.25;4173838;28;20270;-39
2022/03/06 02:35:13;;;;;;;17.90;12.80;;;;;;;0.80;48.55;99153.03;4173530;28;20266;-42
2022/03/06 02:37:17;;;;;;;20.73;13.80;;;;;;;0.71;48.90;99149.31;4174732;28;20235;-40
2022/03/06 02:39:24;;;;;;;18.23;12.77;;;;;;;0.75;48.80;99140.28;4174364;28;20269;-41
2022/03/06 02:41:33;;;;;;;17.70;11.37;;;;;;;0.63;49.03;99152.47;4174264;28;20228;-37
2022/03/06 02:43:35;;;;;;;15.67;11.03;;;;;;;0.77;48.70;99149.69;4174499;28;20289;-41
2022/03/06 02:45:39;;;;;;;15.53;10.37;;;;;;;0.70;48.79;99152.84;4174052;28;20775;-40
2022/03/06 02:47:42;;;;;;;15.73;10.63;;;;;;;0.46;48.83;99155.44;4168378;28;20245;-38
2022/03/06 02:49:43;;;;;;;16.37;10.80;;;;;;;0.87;48.68;99144.63;4166775;28;20240;-40
2022/03/06 02:51:45;;;;;;;14.50;10.03;;;;;;;0.81;48.62;99147.69;4170868;28;20273;-37
2022/03/06 02:53:47;;;;;;;17.13;10.73;;;;;;;0.78;48.80;99146.16;4166554;28;20228;-40
2022/03/06 02:55:48;;;;;;;15.77;11.17;;;;;;;0.68;49.10;99152.13;4168445;28;20227;-40
2022/03/06 02:57:51;;;;;;;16.63;11.07;;;;;;;0.62;49.24;99144.75;4168915;28;20255;-40
2022/03/06 02:59:52;;;;;;;16.20;11.67;;;;;;;1.17;48.27;99138.09;4166871;28;20252;-39
2022/03/06 03:01:54;;;;;;;16.87;11.17;;;;;;;0.99;48.47;99136.84;4171221;28;20825;-41
2022/03/06 03:03:56;;;;;;;17.10;11.20;;;;;;;0.98;48.42;99141.25;4173377;28;20274;-38
2022/03/06 03:05:58;;;;;;;17.47;11.53;;;;;;;0.83;48.60;99150.19;4169713;28;20231;-36
2022/03/06 03:08:00;;;;;;;17.47;10.73;;;;;;;0.69;48.80;99157.25;4172453;28;20239;-37
2022/03/06 03:10:01;;;;;;;17.13;11.23;;;;;;;0.90;48.79;99133.94;4178369;28;20225;-42
2022/03/06 03:12:04;;;;;;;17.57;11.80;;;;;;;0.88;48.65;99141.06;4181862;28;20695;-40
2022/03/06 03:14:09;;;;;;;19.77;12.03;;;;;;;1.02;48.46;99134.88;4174305;28;20238;-40
2022/03/06 03:16:10;;;;;;;16.30;10.80;;;;;;;0.86;48.88;99142.97;4174460;28;20232;-43
2022/03/06 03:18:12;;;;;;;15.23;11.07;;;;;;;0.44;48.78;99167.81;4173890;28;20235;-42
2022/03/06 03:20:15;;;;;;;14.10;10.87;;;;;;;0.44;49.60;99157.34;4174485;28;20280;-44
2022/03/06 03:22:16;;;;;;;17.57;10.87;;;;;;;0.61;49.42;99156.16;4171907;28;20297;-43
2022/03/06 03:24:18;;;;;;;15.83;10.83;;;;;;;0.81;48.84;99155.53;4170349;28;20235;-43
2022/03/06 03:26:20;;;;;;;15.27;10.87;;;;;;;0.92;48.69;99147.75;4174022;28;20232;-40
2022/03/06 03:28:22;;;;;;;16.87;11.10;;;;;;;0.95;48.60;99147.53;4180353;28;20228;-43
2022/03/06 03:30:24;;;;;;;14.80;10.43;;;;;;;1.24;48.08;99143.72;4169142;28;20321;-40
2022/03/06 03:32:26;;;;;;;16.00;11.53;;;;;;;0.66;49.15;99157.47;4169498;28;20240;-42
2022/03/06 03:34:28;;;;;;;15.93;10.87;;;;;;;1.03;48.57;99159.25;4174127;28;20265;-44
2022/03/06 03:36:30;;;;;;;17.33;12.27;;;;;;;1.00;48.93;99146.38;4173739;28;20867;-41
2022/03/06 03:38:32;;;;;;;18.00;11.97;;;;;;;1.13;48.38;99140.13;4173903;28;20321;-44
2022/03/06 03:40:37;;;;;;;17.70;11.73;;;;;;;1.16;48.38;99149.56;4169324;28;20239;-41
2022/03/06 03:42:39;;;;;;;16.63;12.07;;;;;;;1.12;48.52;99153.34;4170193;28;20240;-44
2022/03/06 03:44:41;;;;;;;17.03;11.80;;;;;;;1.30;48.12;99154.59;4171714;28;20239;-41
2022/03/06 03:46:43;;;;;;;18.50;12.23;;;;;;;0.65;49.04;99174.16;4179465;28;20318;-42
2022/03/06 03:48:45;;;;;;;17.30;11.80;;;;;;;0.67;49.29;99168.81;4180140;28;20362;-43
2022/03/06 03:50:47;;;;;;;19.00;12.40;;;;;;;1.13;48.60;99161.06;4174924;28;20234;-45
2022/03/06 03:52:49;;;;;;;17.47;13.30;;;;;;;1.14;48.29;99164.56;4176777;28;20321;-44
2022/03/06 03:54:51;;;;;;;15.07;11.57;;;;;;;1.14;48.88;99148.84;4177250;28;20727;-41
2022/03/06 03:56:52;;;;;;;15.83;11.73;;;;;;;1.09;48.72;99162.25;4176014;28;20240;-42
2022/03/06 03:58:54;;;;;;;14.33;10.77;;;;;;;1.17;48.37;99166.91;4177491;28;20240;-44
2022/03/06 04:00:56;;;;;;;16.40;11.30;;;;;;;1.22;48.34;99162.19;4177307;28;20243;-42
2022/03/06 04:02:58;;;;;;;15.57;11.07;;;;;;;1.24;48.29;99180.41;4175980;28;20262;-42
2022/03/06 04:05:00;;;;;;;13.77;10.90;;;;;;;1.10;48.56;99181.41;4177355;28;20244;-42
2022/03/06 04:07:02;;;;;;;14.50;10.33;;;;;;;0.89;48.89;99191.66;4169051;28;20258;-43
2022/03/06 04:09:03;;;;;;;15.30;10.60;;;;;;;1.03;48.98;99181.03;4176535;28;20282;-43
2022/03/06 04:11:05;;;;;;;16.97;11.50;;;;;;;0.56;49.50;99193.09;4177005;28;20832;-43
2022/03/06 04:13:07;;;;;;;14.10;10.93;;;;;;;0.21;50.01;99204.22;4176459;28;20281;-44
2022/03/06 04:15:09;;;;;;;15.60;10.90;;;;;;;0.54;49.87;99185.34;4173465;28;20244;-44
2022/03/06 04:17:10;;;;;;;14.73;11.20;;;;;;;0.12;50.15;99204.88;4178006;28;20241;-42
2022/03/06 04:19:12;;;;;;;15.10;11.20;;;;;;;0.47;50.35;99180.69;4176595;28;20687;-44
2022/03/06 04:21:14;;;;;;;14.83;10.30;;;;;;;0.43;50.21;99195.75;4176209;28;20235;-43
2022/03/06 04:23:16;;;;;;;16.80;11.20;;;;;;;0.39;50.57;99181.19;4176462;28;20242;-43
2022/03/06 04:25:18;;;;;;;16.43;11.07;;;;;;;0.26;50.66;99203.91;4176686;28;20305;-43
2022/03/06 04:27:19;;;;;;;16.87;11.80;;;;;;;0.63;49.96;99185.66;4176241;28;20239;-43
2022/03/06 04:29:21;;;;;;;19.13;12.83;;;;;;;0.74;49.71;99190.97;4184626;28;20293;-44
2022/03/06 04:31:23;;;;;;;17.97;12.20;;;;;;;0.33;50.49;99211.25;4165379;28;20255;-43
2022/03/06 04:33:25;;;;;;;18.50;11.97;;;;;;;0.72;50.00;99200.72;4175887;28;20325;-43
2022/03/06 04:35:27;;;;;;;19.50;12.70;;;;;;;0.55;49.98;99209.75;4176377;28;20245;-44
2022/03/06 04:37:28;;;;;;;21.70;14.70;;;;;;;0.58;50.05;99206.91;4176735;28;20224;-40
2022/03/06 04:39:30;;;;;;;19.00;13.93;;;;;;;0.65;50.20;99207.31;4176485;28;20256;-41
2022/03/06 04:41:32;;;;;;;20.33;14.87;;;;;;;0.43;50.32;99224.53;4175925;28;20228;-45
2022/03/06 04:43:34;;;;;;;18.57;13.83;;;;;;;0.55;50.24;99215.81;4174278;28;20610;-42
2022/03/06 04:45:35;;;;;;;20.00;13.67;;;;;;;0.87;49.56;99202.22;4176995;28;20731;-42
2022/03/06 04:47:37;;;;;;;19.90;14.10;;;;;;;0.87;49.50;99207.47;4175682;28;20235;-43
2022/03/06 04:49:39;;;;;;;19.57;13.23;;;;;;;0.75;49.83;99217.03;4176575;28;20236;-44
2022/03/06 04:51:41;;;;;;;16.97;12.07;;;;;;;0.26;50.55;99230.94;4176485;28;20232;-41
2022/03/06 04:53:43;;;;;;;17.17;11.90;;;;;;;0.45;50.53;99225.25;4175353;28;20763;-42
2022/03/06 04:55:45;;;;;;;14.87;10.63;;;;;;;0.77;49.77;99222.97;4176214;28;20361;-44
2022/03/06 04:57:47;;;;;;;17.23;12.97;;;;;;;0.90;49.45;99217.72;4176149;28;20897;-44
2022/03/06 04:59:49;;;;;;;17.87;13.40;;;;;;;0.74;49.81;99219.75;4175649;28;20230;-43
2022/03/06 05:01:50;;;;;;;20.60;14.47;;;;;;;0.48;50.34;99232.03;4178807;28;20240;-42
2022/03/06 05:03:52;;;;;;;19.83;13.17;;;;;;;0.55;50.29;99220.22;4172094;28;20262;-44
2022/03/06 05:05:54;;;;;;;15.73;12.10;;;;;;;0.25;50.88;99225.81;4181209;28;20228;-44
2022/03/06 05:07:56;;;;;;;15.90;11.33;;;;;;;0.65;50.05;99225.63;4177095;28;20280;-42
2022/03/06 05:09:58;;;;;;;16.83;12.77;;;;;;;0.57;50.02;99237.47;4176002;28;20545;-44
2022/03/06 05:12:00;;;;;;;18.27;13.60;;;;;;;0.60;50.18;99225.97;4175264;28;20288;-43
2022/03/06 05:14:02;;;;;;;18.80;12.67;;;;;;;0.35;50.97;99230.28;4175767;28;20243;-44
2022/03/06 05:16:04;;;;;;;18.97;14.13;;;;;;;0.44;51.02;99223.56;4183891;28;20241;-43
2022/03/06 05:18:07;;;;;;;19.90;14.57;;;;;;;0.54;50.70;99216.75;4180123;28;20234;-42
2022/03/06 05:20:10;;;;;;;22.20;15.30;;;;;;;0.41;50.90;99223.78;4183533;28;20244;-44
2022/03/06 05:22:12;;;;;;;24.43;15.67;;;;;;;0.27;51.01;99229.16;4175837;28;20704;-44
2022/03/06 05:24:14;;;;;;;25.93;16.20;;;;;;;0.18;51.13;99236.69;4179318;28;20300;-43
2022/03/06 05:26:16;;;;;;;20.60;14.50;;;;;;;0.39;50.80;99225.66;4179799;28;20782;-44
2022/03/06 05:28:18;;;;;;;18.87;14.37;;;;;;;-0.52;51.98;99260.50;4175329;28;20239;-43
2022/03/06 05:30:19;;;;;;;20.17;13.93;;;;;;;0.19;51.63;99219.19;4181439;28;20672;-42
2022/03/06 05:32:21;;;;;;;23.37;17.17;;;;;;;0.21;51.02;99231.25;4182764;28;20708;-44
2022/03/06 05:34:23;;;;;;;22.53;16.47;;;;;;;0.38;50.81;99226.63;4181153;28;20246;-44
2022/03/06 05:36:25;;;;;;;18.87;13.77;;;;;;;0.42;50.50;99227.25;4176435;28;20239;-42
2022/03/06 05:38:27;;;;;;;19.77;13.73;;;;;;;0.47;50.48;99233.00;4180120;28;20722;-42
2022/03/06 05:40:28;;;;;;;19.10;14.83;;;;;;;0.57;50.40;99226.19;4182657;28;20227;-43
2022/03/06 05:42:30;;;;;;;27.67;19.90;;;;;;;0.48;50.37;99232.03;4174102;28;20228;-43
2022/03/06 05:44:32;;;;;;;24.97;17.27;;;;;;;0.66;50.41;99229.91;4182808;28;20666;-44
2022/03/06 05:46:34;;;;;;;21.43;16.23;;;;;;;0.33;50.52;99255.72;4175254;28;20243;-43
2022/03/06 05:48:35;;;;;;;21.43;15.43;;;;;;;0.36;50.93;99238.94;4183637;28;20639;-43
2022/03/06 05:50:37;;;;;;;25.93;16.87;;;;;;;0.34;50.83;99257.38;4179597;28;20239;-41
2022/03/06 05:52:39;;;;;;;20.20;13.93;;;;;;;0.02;51.77;99257.78;4174772;28;20224;-43
2022/03/06 05:54:41;;;;;;;18.17;13.63;;;;;;;0.16;51.43;99248.16;4159020;28;20243;-42
2022/03/06 05:56:43;;;;;;;22.33;15.27;;;;;;;0.20;51.54;99249.66;4176498;28;20240;-41
2022/03/06 05:58:45;;;;;;;22.63;17.57;;;;;;;0.35;51.15;99238.13;4170643;28;20233;-44
2022/03/06 06:00:46;;;;;;;23.90;16.47;;;;;;;0.27;51.54;99244.84;4183459;28;20318;-43
2022/03/06 06:02:49;;;;;;;20.67;14.73;;;;;;;0.23;51.43;99249.44;4173815;28;20314;-43
2022/03/06 06:04:51;;;;;;;20.17;14.53;;;;;;;0.20;51.39;99252.25;4176211;28;20257;-41
2022/03/06 06:06:53;;;;;;;19.47;14.37;;;;;;;0.02;51.93;99264.78;4177277;28;20498;-44
2022/03/06 06:08:55;;;;;;;18.63;14.77;;;;;;;0.12;52.21;99249.31;4174598;28;20240;-42
2022/03/06 06:10:57;;;;;;;20.57;15.50;;;;;;;0.07;52.13;99259.25;4176771;28;20709;-43
2022/03/06 06:12:58;;;;;;;19.37;13.97;;;;;;;0.52;51.25;99239.56;4177978;28;20672;-44
2022/03/06 06:15:00;;;;;;;18.30;14.23;;;;;;;0.36;51.22;99260.72;4182712;28;20645;-41
2022/03/06 06:17:02;;;;;;;17.37;13.47;;;;;;;0.44;51.26;99259.34;4166205;28;20777;-43
2022/03/06 06:19:04;;;;;;;17.60;13.90;;;;;;;-0.30;52.00;99280.84;4191408;28;20235;-44
2022/03/06 06:21:06;;;;;;;18.33;13.37;;;;;;;0.48;51.64;99247.72;4191317;28;20303;-41
2022/03/06 06:23:08;;;;;;;19.20;13.63;;;;;;;0.44;51.70;99246.28;4175055;28;20291;-42
2022/03/06 06:25:10;;;;;;;16.47;13.20;;;;;;;0.29;51.63;99264.69;4191185;28;20235;-41
2022/03/06 06:27:12;;;;;;;19.83;13.50;;;;;;;0.48;51.51;99256.44;4182306;28;20242;-45
2022/03/06 06:29:14;;;;;;;19.40;13.10;;;;;;;0.53;51.48;99258.72;4172889;28;20238;-45
2022/03/06 06:31:15;;;;;;;17.57;14.00;;;;;;;0.38;51.49;99261.47;4175030;28;20713;-44
2022/03/06 06:33:17;;;;;;;17.80;13.80;;;;;;;0.55;51.78;99246.38;4174600;28;20289;-43
2022/03/06 06:35:20;;;;;;;17.07;12.70;;;;;;;0.52;51.65;99265.72;4177235;28;20297;-42
2022/03/06 06:37:21;;;;;;;19.10;13.70;;;;;;;0.49;51.84;99265.94;4180487;28;20238;-43
2022/03/06 06:39:25;;;;;;;20.93;14.07;;;;;;;0.35;52.17;99266.06;4174210;28;20235;-43
2022/03/06 06:41:27;;;;;;;17.83;13.37;;;;;;;0.19;52.91;99268.88;4173764;28;20239;-42
2022/03/06 06:43:29;;;;;;;20.70;13.27;;;;;;;0.42;52.52;99254.22;4171173;28;20224;-45
2022/03/06 06:45:31;;;;;;;19.20;13.30;;;;;;;-0.05;53.51;99271.38;4175040;28;20235;-43
2022/03/06 06:47:33;;;;;;;17.80;13.10;;;;;;;0.19;53.47;99266.25;4174518;28;20245;-45
2022/03/06 06:49:35;;;;;;;19.87;13.40;;;;;;;-0.40;55.02;99267.56;4171381;28;20354;-44
2022/03/06 06:51:38;;;;;;;19.57;14.27;;;;;;;0.04;54.39;99257.69;4170450;28;20235;-44
2022/03/06 06:53:40;;;;;;;21.43;15.53;;;;;;;0.63;52.78;99254.50;4168515;28;20228;-40
2022/03/06 06:55:41;;;;;;;24.10;15.77;;;;;;;0.35;53.45;99259.06;4169778;28;20243;-43
2022/03/06 06:57:43;;;;;;;20.07;14.83;;;;;;;0.25;53.48;99286.78;4176788;28;20227;-43
2022/03/06 06:59:45;;;;;;;24.10;16.10;;;;;;;0.58;53.15;99265.31;4171050;28;20632;-42
2022/03/06 07:01:46;;;;;;;23.70;17.20;;;;;;;0.91;52.58;99253.41;4173215;28;20228;-45
2022/03/06 07:03:48;;;;;;;23.17;16.87;;;;;;;0.74;52.93;99259.84;4172001;28;20231;-44
2022/03/06 07:05:50;;;;;;;18.40;14.10;;;;;;;0.76;52.59;99268.41;4176309;28;20285;-42
2022/03/06 07:07:53;;;;;;;17.57;12.87;;;;;;;0.84;52.47;99269.66;4175631;28;20916;-40
2022/03/06 07:09:55;;;;;;;16.43;12.43;;;;;;;0.83;52.17;99284.50;4172743;28;20274;-44
2022/03/06 07:11:56;;;;;;;20.20;13.67;;;;;;;1.00;52.35;99274.66;4170588;28;20232;-43
2022/03/06 07:13:58;;;;;;;17.03;12.30;;;;;;;0.64;53.08;99294.63;4167346;28;20228;-42
2022/03/06 07:16:05;;;;;;;15.40;11.07;;;;;;;0.63;52.95;99299.00;4168180;28;20228;-45
2022/03/06 07:18:07;;;;;;;16.83;11.77;;;;;;;0.88;52.87;99290.25;4171680;28;20239;-42
2022/03/06 07:20:09;;;;;;;18.70;13.13;;;;;;;0.77;53.44;99298.88;4170303;28;21058;-41
2022/03/06 07:22:12;;;;;;;16.73;12.13;;;;;;;0.99;52.72;99293.94;4172632;28;20228;-41
2022/03/06 07:24:13;;;;;;;17.03;12.63;;;;;;;0.94;53.26;99292.47;4171476;28;20236;-44
2022/03/06 07:26:15;;;;;;;18.27;12.67;;;;;;;0.64;52.95;99321.59;4170906;28;20228;-44
2022/03/06 07:28:17;;;;;;;17.37;12.93;;;;;;;1.07;52.98;99299.47;4177099;28;20282;-41
2022/03/06 07:30:19;;;;;;;17.00;13.43;;;;;;;1.24;52.69;99287.78;4178906;28;20231;-44
2022/03/06 07:32:22;;;;;;;17.87;12.83;;;;;;;1.16;52.71;99290.97;4171347;28;20228;-44
2022/03/06 07:34:24;;;;;;;19.80;14.00;;;;;;;0.95;53.47;99302.00;4174047;28;20726;-45
2022/03/06 07:36:26;;;;;;;19.53;14.47;;;;;;;1.13;53.12;99297.25;4173732;28;20227;-45
2022/03/06 07:38:28;;;;;;;21.27;15.87;;;;;;;0.76;54.00;99312.06;4176150;28;20256;-44
2022/03/06 07:40:30;;;;;;;17.67;13.27;;;;;;;1.05;54.59;99289.09;4172872;28;20596;-45
2022/03/06 07:42:32;;;;;;;17.97;12.23;;;;;;;1.38;53.50;99299.91;4169439;28;20229;-44
2022/03/06 07:44:34;;;;;;;16.63;11.37;;;;;;;1.11;54.02;99312.25;4168164;28;20237;-44
2022/03/06 07:46:36;;;;;;;16.47;12.00;;;;;;;1.64;53.37;99295.38;4170301;28;20242;-42
2022/03/06 07:48:37;;;;;;;16.70;11.97;;;;;;;1.65;53.47;99299.66;4172445;28;20366;-41
2022/03/06 07:50:39;;;;;;;13.37;10.47;;;;;;;0.70;54.97;99334.28;4169350;28;20228;-45
2022/03/06 07:52:41;;;;;;;15.10;10.87;;;;;;;0.88;54.83;99311.19;4171275;28;20302;-42
2022/03/06 07:54:43;;;;;;;16.13;10.87;;;;;;;1.65;53.33;99303.13;4176069;28;20236;-43
2022/03/06 07:56:48;;;;;;;15.23;10.90;;;;;;;0.92;55.63;99314.47;4173877;28;20224;-43
2022/03/06 07:58:50;;;;;;;14.90;10.13;;;;;;;1.27;54.70;99303.28;4169538;28;20237;-41
2022/03/06 08:00:52;;;;;;;12.77;9.93;;;;;;;0.83;56.74;99305.44;4176014;28;20763;-40
2022/03/06 08:02:56;;;;;;;16.33;11.93;;;;;;;1.51;55.37;99293.66;4172724;28;20305;-42
2022/03/06 08:04:58;;;;;;;15.73;12.00;;;;;;;2.34;52.72;99294.50;4174587;28;20242;-41
2022/03/06 08:06:59;;;;;;;14.70;11.40;;;;;;;2.33;52.76;99308.56;4174544;28;20783;-45
2022/03/06 08:09:04;;;;;;;17.17;11.43;;;;;;;1.67;54.59;99316.13;4171666;28;21685;-44
2022/03/06 08:11:06;;;;;;;14.87;10.87;;;;;;;1.10;56.79;99325.44;4171561;28;20291;-41
2022/03/06 08:13:07;;;;;;;17.43;11.27;;;;;;;1.53;54.53;99330.22;4166013;28;20314;-43
2022/03/06 08:15:09;;;;;;;17.17;11.90;;;;;;;2.10;54.15;99304.22;4177835;28;20319;-44
2022/03/06 08:17:11;;;;;;;13.13;10.00;;;;;;;1.86;54.55;99310.34;4171231;28;20299;-44
2022/03/06 08:19:13;;;;;;;16.10;11.07;;;;;;;1.79;54.63;99309.13;4174508;28;20245;-45
2022/03/06 08:21:15;;;;;;;16.57;10.93;;;;;;;1.72;53.87;99334.13;4176480;28;20895;-44
2022/03/06 08:23:16;;;;;;;13.40;10.17;;;;;;;1.05;56.60;99340.63;4167190;28;20223;-45
2022/03/06 08:25:20;;;;;;;14.93;10.17;;;;;;;0.94;56.03;99349.22;4178420;28;20237;-42
2022/03/06 08:27:22;;;;;;;18.40;11.73;;;;;;;2.51;54.13;99295.81;4169530;28;20623;-42
2022/03/06 08:29:23;;;;;;;16.63;10.73;;;;;;;1.36;55.84;99323.59;4174491;28;20314;-44
2022/03/06 08:31:26;;;;;;;15.00;10.90;;;;;;;2.03;54.66;99294.22;4177116;28;20252;-40
2022/03/06 08:33:28;;;;;;;15.70;11.53;;;;;;;2.14;53.96;99318.78;4172923;28;20769;-45
2022/03/06 08:35:30;;;;;;;18.40;11.50;;;;;;;1.13;55.67;99340.94;4171041;28;20239;-45
2022/03/06 08:37:32;;;;;;;14.17;10.77;;;;;;;2.09;54.98;99306.00;4169079;28;20231;-45
2022/03/06 08:39:34;;;;;;;15.17;11.87;;;;;;;1.00;55.88;99364.50;4173547;28;20233;-44
2022/03/06 08:41:36;;;;;;;15.73;10.43;;;;;;;1.01;56.55;99333.97;4173225;28;20265;-43
2022/03/06 08:43:37;;;;;;;16.47;11.53;;;;;;;2.54;54.61;99289.50;4176496;28;20706;-39
2022/03/06 08:45:39;;;;;;;17.13;11.33;;;;;;;1.68;55.36;99329.09;4178141;28;20233;-42
2022/03/06 08:47:41;;;;;;;16.40;11.17;;;;;;;1.68;56.09;99310.75;4177407;28;20229;-44
2022/03/06 08:49:43;;;;;;;14.77;10.87;;;;;;;2.08;54.70;99307.81;4174178;28;20235;-44
2022/03/06 08:51:44;;;;;;;15.33;11.50;;;;;;;1.75;55.36;99323.44;4174914;28;20722;-42
2022/03/06 08:53:46;;;;;;;16.13;11.60;;;;;;;2.41;53.60;99334.22;4174913;28;20273;-44
2022/03/06 08:55:48;;;;;;;17.63;11.70;;;;;;;2.69;53.62;99314.59;4182524;28;20238;-41
2022/03/06 08:57:49;;;;;;;17.27;12.57;;;;;;;2.50;54.14;99309.06;4178155;28;20471;-44
2022/03/06 08:59:51;;;;;;;15.20;10.67;;;;;;;2.06;53.81;99353.44;4175415;28;20288;-44
2022/03/06 09:01:55;;;;;;;14.23;10.50;;;;;;;2.41;53.97;99316.69;4177275;28;20231;-42
2022/03/06 09:03:58;;;;;;;17.83;12.17;;;;;;;2.07;53.83;99355.97;4183451;28;20241;-37
2022/03/06 09:05:59;;;;;;;16.50;11.57;;;;;;;3.01;53.29;99303.34;4176827;28;20269;-41
2022/03/06 09:08:01;;;;;;;16.13;11.70;;;;;;;3.67;51.71;99292.81;4174536;28;20262;-45
2022/03/06 09:10:03;;;;;;;16.13;11.43;;;;;;;3.44;50.82;99343.78;4183545;28;20268;-43
2022/03/06 09:12:12;;;;;;;16.27;11.37;;;;;;;2.45;52.88;99357.50;4177599;28;20234;-43
2022/03/06 09:14:13;;;;;;;15.40;10.97;;;;;;;2.74;53.27;99316.81;4176576;28;20660;-43
2022/03/06 09:16:15;;;;;;;13.17;10.70;;;;;;;2.88;52.73;99355.16;4172846;28;20249;-42
2022/03/06 09:18:17;;;;;;;20.83;11.53;;;;;;;3.59;51.82;99315.44;4174304;28;20302;-37
2022/03/06 09:20:19;;;;;;;17.97;12.30;;;;;;;3.24;51.85;99347.97;4183097;28;20239;-41
2022/03/06 09:22:20;;;;;;;16.07;11.80;;;;;;;3.45;52.39;99312.13;4172661;28;20250;-41
2022/03/06 09:24:22;;;;;;;15.23;12.00;;;;;;;4.11;49.28;99334.81;4173328;28;20232;-41
2022/03/06 09:26:24;;;;;;;16.10;11.93;;;;;;;3.68;50.66;99340.97;4170990;28;20609;-42
2022/03/06 09:28:25;;;;;;;17.00;12.40;;;;;;;3.16;52.37;99346.78;4163218;28;20240;-39